Time;durP1;ratioP1;P1;durP2;ratioP2;P2;SDS_P1;SDS_P2;PMS_P1;PMS_P2;Temp;Humidity;BMP_temperature;BMP_pressure;BME280_temperature;BME280_humidity;BME280_pressure;Samples;Min_cycle;Max_cycle;Signal;HPM_P1;HPM_P2
2023/09/30 00:02:20;;;;;;;;;;;22.90;99.90;;;;;;5114025;28;20326;-71
2023/09/30 00:04:46;;;;;;;;;;;23.00;99.90;;;;;;5113977;28;20002;-69
2023/09/30 00:07:13;;;;;;;;;;;23.00;99.90;;;;;;5113950;28;19912;-69
2023/09/30 00:09:40;;;;;;;;;;;23.10;99.90;;;;;;5113610;28;19912;-69
2023/09/30 00:12:06;;;;;;;;;;;23.10;99.90;;;;;;5113803;28;19985;-72
2023/09/30 00:14:33;;;;;;;;;;;23.20;99.90;;;;;;5113781;28;19908;-70
2023/09/30 00:17:00;;;;;;;;;;;23.20;99.90;;;;;;5113613;28;19908;-69
2023/09/30 00:19:26;;;;;;;;;;;23.40;99.90;;;;;;5113650;27;19911;-69
2023/09/30 00:21:53;;;;;;;;;;;23.30;99.90;;;;;;5113696;28;19907;-69
2023/09/30 00:24:20;;;;;;;;;;;23.50;99.90;;;;;;5113384;28;20374;-71
2023/09/30 00:26:47;;;;;;;;;;;23.60;99.90;;;;;;5113628;28;19942;-70
2023/09/30 00:29:13;;;;;;;;;;;23.70;99.90;;;;;;5113504;28;20375;-69
2023/09/30 00:31:40;;;;;;;;;;;23.80;99.90;;;;;;5113668;28;20359;-70
2023/09/30 00:34:08;;;;;;;;;;;24.00;99.90;;;;;;5113677;28;19908;-70
2023/09/30 00:36:35;;;;;;;;;;;24.00;99.90;;;;;;5113214;28;19942;-69
2023/09/30 00:39:02;;;;;;;;;;;24.20;99.90;;;;;;5113334;28;19973;-68
2023/09/30 00:41:28;;;;;;;;;;;24.30;99.90;;;;;;5113353;28;19908;-72
2023/09/30 00:43:55;;;;;;;;;;;24.30;99.90;;;;;;5113371;28;19919;-67
2023/09/30 00:46:31;;;;;;;;;;;24.50;99.90;;;;;;5113247;28;19908;-71
2023/09/30 00:48:58;;;;;;;;;;;24.80;99.90;;;;;;5112998;28;19920;-68
2023/09/30 00:51:26;;;;;;;;;;;24.80;99.90;;;;;;5113032;28;20364;-69
2023/09/30 00:53:53;;;;;;;;;;;25.00;99.90;;;;;;5113292;28;20396;-68
2023/09/30 00:56:20;;;;;;;;;;;25.10;99.90;;;;;;5113319;28;19907;-69
2023/09/30 00:58:48;;;;;;;;;;;25.30;99.90;;;;;;5112874;28;19907;-70
2023/09/30 01:01:15;;;;;;;;;;;25.30;99.90;;;;;;5112986;28;19908;-67
2023/09/30 01:03:42;;;;;;;;;;;25.50;99.90;;;;;;5113255;28;19911;-71
2023/09/30 01:06:09;;;;;;;;;;;25.60;99.90;;;;;;5113226;28;19937;-70
2023/09/30 01:08:36;;;;;;;;;;;25.80;99.90;;;;;;5113613;28;19967;-72
2023/09/30 01:11:03;;;;;;;;;;;25.90;99.90;;;;;;5117273;28;19908;-71
2023/09/30 01:13:35;;;;;;;;;;;25.90;99.90;;;;;;5117311;28;19951;-72
2023/09/30 01:16:11;;;;;;;;;;;26.00;99.90;;;;;;5117371;28;19968;-72
2023/09/30 01:18:39;;;;;;;;;;;26.20;99.90;;;;;;5117044;28;19908;-72
2023/09/30 01:21:06;;;;;;;;;;;26.30;99.70;;;;;;5117083;28;19957;-72
2023/09/30 01:23:33;;;;;;;;;;;26.60;99.90;;;;;;5117091;28;19915;-70
2023/09/30 01:26:09;;;;;;;;;;;26.80;99.40;;;;;;5117059;28;19911;-72
2023/09/30 01:28:35;;;;;;;;;;;27.00;99.80;;;;;;5116836;28;19965;-70
2023/09/30 01:31:02;;;;;;;;;;;27.10;98.90;;;;;;5117175;28;19911;-72
2023/09/30 01:33:29;;;;;;;;;;;27.30;99.40;;;;;;5117083;28;19914;-70
2023/09/30 01:35:55;;;;;;;;;;;27.40;98.60;;;;;;5116920;28;19908;-71
2023/09/30 01:38:22;;;;;;;;;;;27.50;98.80;;;;;;5116764;28;19984;-70
2023/09/30 01:40:49;;;;;;;;;;;27.60;98.30;;;;;;5116661;28;19915;-70
2023/09/30 01:43:16;;;;;;;;;;;27.80;98.80;;;;;;5116648;28;19908;-69
2023/09/30 01:45:42;;;;;;;;;;;28.10;98.40;;;;;;5116835;28;19908;-72
2023/09/30 01:48:12;;;;;;;;;;;28.30;97.70;;;;;;5116365;28;19926;-70
2023/09/30 01:50:39;;;;;;;;;;;28.50;98.00;;;;;;5116511;28;20003;-70
2023/09/30 01:53:06;;;;;;;;;;;28.60;96.90;;;;;;5116324;28;19915;-70
2023/09/30 01:55:33;;;;;;;;;;;28.80;97.10;;;;;;5116403;28;19907;-72
2023/09/30 01:58:00;;;;;;;;;;;28.90;97.30;;;;;;5116137;28;20474;-70
2023/09/30 02:00:28;;;;;;;;;;;29.10;97.30;;;;;;5116350;28;19908;-71
2023/09/30 02:02:55;;;;;;;;;;;29.10;96.70;;;;;;5116391;28;19911;-71
2023/09/30 02:05:23;;;;;;;;;;;29.00;95.80;;;;;;5116078;28;19908;-72
2023/09/30 02:07:50;;;;;;;;;;;28.60;97.40;;;;;;5116121;28;19916;-71
2023/09/30 02:10:20;;;;;;;;;;;28.40;97.00;;;;;;5116097;28;20305;-70
2023/09/30 02:12:47;;;;;;;;;;;28.50;97.50;;;;;;5116136;28;20388;-71
2023/09/30 02:15:14;;;;;;;;;;;28.70;97.40;;;;;;5116404;28;19904;-69
2023/09/30 02:17:45;;;;;;;;;;;28.90;97.10;;;;;;5116004;28;19986;-69
2023/09/30 02:20:15;;;;;;;;;;;29.00;96.30;;;;;;5115114;28;19947;-69
2023/09/30 02:22:43;;;;;;;;;;;29.10;96.40;;;;;;5116004;28;19908;-71
2023/09/30 02:25:12;;;;;;;;;;;28.90;96.60;;;;;;5116323;28;19947;-70
2023/09/30 02:27:41;;;;;;;;;;;28.70;96.10;;;;;;5115879;28;19915;-68
2023/09/30 02:30:08;;;;;;;;;;;28.70;96.90;;;;;;5115675;28;20378;-69
2023/09/30 02:32:35;;;;;;;;;;;28.90;97.10;;;;;;5114325;28;19908;-70
2023/09/30 02:35:01;;;;;;;;;;;29.20;96.90;;;;;;5115790;28;19931;-70
2023/09/30 02:37:28;;;;;;;;;;;29.70;95.50;;;;;;5115603;28;19908;-70
2023/09/30 02:39:55;;;;;;;;;;;30.00;94.80;;;;;;5115433;28;19904;-71
2023/09/30 02:42:23;;;;;;;;;;;29.90;94.80;;;;;;5115734;28;20002;-70
2023/09/30 02:44:50;;;;;;;;;;;30.50;93.60;;;;;;5115865;28;20002;-70
2023/09/30 02:47:16;;;;;;;;;;;31.40;93.60;;;;;;5115500;28;19908;-69
2023/09/30 02:49:43;;;;;;;;;;;32.50;92.00;;;;;;5115194;28;19920;-68
2023/09/30 02:52:10;;;;;;;;;;;33.30;90.30;;;;;;5115275;28;19995;-67
2023/09/30 02:54:36;;;;;;;;;;;34.00;89.40;;;;;;5115554;28;19907;-71
2023/09/30 02:57:03;;;;;;;;;;;33.80;86.10;;;;;;5115387;28;20356;-67
2023/09/30 02:59:30;;;;;;;;;;;34.80;83.80;;;;;;5113942;28;19976;-69
2023/09/30 03:01:57;;;;;;;;;;;35.90;81.20;;;;;;5114150;28;20319;-69
2023/09/30 03:04:25;;;;;;;;;;;36.70;79.20;;;;;;5115378;28;19952;-68
2023/09/30 03:06:52;;;;;;;;;;;37.50;78.00;;;;;;5115575;28;19921;-69
2023/09/30 03:09:20;;;;;;;;;;;37.00;76.10;;;;;;5115127;28;19916;-70
2023/09/30 03:11:46;;;;;;;;;;;37.10;76.70;;;;;;5115286;28;19955;-70
2023/09/30 03:14:13;;;;;;;;;;;37.00;74.30;;;;;;5114871;28;19977;-68
2023/09/30 03:16:41;;;;;;;;;;;37.60;75.40;;;;;;5113662;28;19908;-68
2023/09/30 03:19:11;;;;;;;;;;;38.30;73.00;;;;;;5114812;28;20379;-69
2023/09/30 03:21:38;;;;;;;;;;;37.60;73.80;;;;;;5114753;28;19915;-69
2023/09/30 03:24:05;;;;;;;;;;;38.20;72.70;;;;;;5114891;28;19934;-69
2023/09/30 03:26:32;;;;;;;;;;;38.00;71.20;;;;;;5114878;28;19908;-69
2023/09/30 03:28:59;;;;;;;;;;;37.60;71.70;;;;;;5114406;28;19916;-69
2023/09/30 03:31:25;;;;;;;;;;;37.50;72.10;;;;;;5114609;28;20353;-69
2023/09/30 03:33:55;;;;;;;;;;;38.90;71.90;;;;;;5114687;28;19953;-71
2023/09/30 03:36:24;;;;;;;;;;;39.90;68.80;;;;;;5114776;28;19908;-70
2023/09/30 03:38:54;;;;;;;;;;;38.30;68.80;;;;;;5114539;28;19914;-71
2023/09/30 03:41:20;;;;;;;;;;;37.50;70.00;;;;;;5114581;28;19991;-69
2023/09/30 03:43:49;;;;;;;;;;;36.90;72.70;;;;;;5114314;28;19904;-70
2023/09/30 03:46:16;;;;;;;;;;;37.80;70.50;;;;;;5113946;28;19912;-71
2023/09/30 03:48:44;;;;;;;;;;;38.60;68.70;;;;;;5114019;28;19923;-71
2023/09/30 03:51:15;;;;;;;;;;;38.90;69.20;;;;;;5114152;28;20461;-70
2023/09/30 03:53:42;;;;;;;;;;;39.00;69.50;;;;;;5114292;28;19915;-70
2023/09/30 03:56:11;;;;;;;;;;;39.20;67.40;;;;;;5114128;28;19912;-69
2023/09/30 03:58:41;;;;;;;;;;;39.40;67.30;;;;;;5113909;28;19908;-69
2023/09/30 04:01:14;;;;;;;;;;;39.80;66.90;;;;;;5113855;28;19957;-69
2023/09/30 04:03:43;;;;;;;;;;;40.90;64.90;;;;;;5113951;28;19904;-70
2023/09/30 04:06:10;;;;;;;;;;;40.60;64.60;;;;;;5113940;28;19908;-69
2023/09/30 04:08:36;;;;;;;;;;;39.60;65.10;;;;;;5113925;28;19992;-70
2023/09/30 04:11:03;;;;;;;;;;;40.10;65.60;;;;;;5113872;28;19908;-70
2023/09/30 04:13:30;;;;;;;;;;;39.50;65.90;;;;;;5113680;28;19908;-71
2023/09/30 04:15:58;;;;;;;;;;;39.80;64.40;;;;;;5113861;28;19943;-70
2023/09/30 04:18:26;;;;;;;;;;;39.60;65.10;;;;;;5113797;28;19961;-71
2023/09/30 04:20:53;;;;;;;;;;;40.10;64.40;;;;;;5113615;28;19974;-69
2023/09/30 04:23:22;;;;;;;;;;;40.80;63.40;;;;;;5113830;28;19914;-69
2023/09/30 04:25:49;;;;;;;;;;;40.60;63.00;;;;;;5113425;28;20376;-68
2023/09/30 04:28:20;;;;;;;;;;;40.10;63.70;;;;;;5112364;27;20333;-69
2023/09/30 04:30:50;;;;;;;;;;;39.50;63.80;;;;;;5113597;28;19976;-69
2023/09/30 04:33:20;;;;;;;;;;;39.50;65.30;;;;;;5113511;28;19953;-69
2023/09/30 04:35:46;;;;;;;;;;;38.90;65.00;;;;;;5113580;28;19915;-69
2023/09/30 04:38:13;;;;;;;;;;;38.40;65.40;;;;;;5113441;28;19915;-70
2023/09/30 04:40:40;;;;;;;;;;;38.60;65.10;;;;;;5113205;28;19962;-69
2023/09/30 04:43:06;;;;;;;;;;;39.60;64.20;;;;;;5113014;28;19908;-70
2023/09/30 04:45:33;;;;;;;;;;;39.30;64.60;;;;;;5113423;28;19908;-70
2023/09/30 04:48:02;;;;;;;;;;;39.30;66.20;;;;;;5113342;28;19919;-68
2023/09/30 04:50:30;;;;;;;;;;;39.70;64.20;;;;;;5113328;28;19908;-71
2023/09/30 04:53:00;;;;;;;;;;;40.30;63.40;;;;;;5113468;28;19908;-71
2023/09/30 04:55:26;;;;;;;;;;;40.40;63.50;;;;;;5113224;28;19951;-69
2023/09/30 04:57:53;;;;;;;;;;;41.40;62.80;;;;;;5113355;28;20291;-69
2023/09/30 05:00:25;;;;;;;;;;;41.20;62.40;;;;;;5113153;28;20006;-70
2023/09/30 05:02:52;;;;;;;;;;;40.60;63.00;;;;;;5113020;28;19951;-69
2023/09/30 05:05:19;;;;;;;;;;;41.10;63.30;;;;;;5111924;28;19912;-71
2023/09/30 05:07:47;;;;;;;;;;;41.30;62.10;;;;;;5113248;28;19951;-69
2023/09/30 05:10:15;;;;;;;;;;;41.80;61.80;;;;;;5113201;28;19968;-69
2023/09/30 05:12:45;;;;;;;;;;;41.60;62.80;;;;;;5113299;28;20364;-69
2023/09/30 05:15:15;;;;;;;;;;;41.50;62.50;;;;;;5112965;28;20011;-70
2023/09/30 05:17:45;;;;;;;;;;;41.80;61.40;;;;;;5112944;28;20004;-70
2023/09/30 05:20:12;;;;;;;;;;;41.40;62.00;;;;;;5112888;28;19949;-68
2023/09/30 05:22:45;;;;;;;;;;;41.00;61.80;;;;;;5113071;28;20249;-68
2023/09/30 05:25:17;;;;;;;;;;;40.50;61.90;;;;;;5112958;28;20283;-69
2023/09/30 05:27:45;;;;;;;;;;;40.00;63.50;;;;;;5111754;28;19922;-71
2023/09/30 05:30:11;;;;;;;;;;;39.80;63.30;;;;;;5113028;28;19959;-69
2023/09/30 05:32:39;;;;;;;;;;;40.40;64.20;;;;;;5113063;28;19911;-69
2023/09/30 05:35:12;;;;;;;;;;;40.50;63.50;;;;;;5112941;28;20006;-71
2023/09/30 05:37:40;;;;;;;;;;;39.30;64.00;;;;;;5112552;28;19976;-71
2023/09/30 05:40:16;;;;;;;;;;;38.70;65.00;;;;;;5112853;28;20289;-71
2023/09/30 05:42:44;;;;;;;;;;;38.60;65.20;;;;;;5113120;28;20414;-69
2023/09/30 05:45:12;;;;;;;;;;;38.30;65.40;;;;;;5112876;28;19914;-68
2023/09/30 05:47:40;;;;;;;;;;;38.60;65.20;;;;;;5112499;28;19915;-68
2023/09/30 05:50:07;;;;;;;;;;;38.50;65.10;;;;;;5112821;28;20322;-71
2023/09/30 05:52:34;;;;;;;;;;;37.70;65.70;;;;;;5112973;28;19915;-71
2023/09/30 05:55:01;;;;;;;;;;;38.00;66.80;;;;;;5112988;28;19908;-69
2023/09/30 05:57:28;;;;;;;;;;;36.90;66.50;;;;;;5116356;28;19960;-68
2023/09/30 05:59:55;;;;;;;;;;;36.00;69.00;;;;;;5116187;28;20346;-68
2023/09/30 06:02:21;;;;;;;;;;;35.30;69.80;;;;;;5116385;28;19985;-71
2023/09/30 06:04:50;;;;;;;;;;;34.30;70.90;;;;;;5116483;28;20027;-69
2023/09/30 06:07:19;;;;;;;;;;;33.90;71.30;;;;;;5116227;28;20374;-69
2023/09/30 06:09:49;;;;;;;;;;;32.90;74.00;;;;;;5116283;28;19908;-71
2023/09/30 06:12:16;;;;;;;;;;;31.80;76.60;;;;;;5116070;27;19912;-70
2023/09/30 06:14:43;;;;;;;;;;;32.50;76.20;;;;;;5116218;28;19987;-69
2023/09/30 06:17:10;;;;;;;;;;;33.40;74.80;;;;;;5116078;28;19908;-70
2023/09/30 06:19:37;;;;;;;;;;;34.00;73.20;;;;;;5115844;28;19907;-68
2023/09/30 06:22:04;;;;;;;;;;;35.20;71.80;;;;;;5116252;28;19908;-71
2023/09/30 06:24:31;;;;;;;;;;;35.70;70.30;;;;;;5115945;28;19959;-70
2023/09/30 06:26:57;;;;;;;;;;;35.70;70.10;;;;;;5115958;28;19908;-69
2023/09/30 06:29:24;;;;;;;;;;;35.50;69.90;;;;;;5115629;28;19967;-69
2023/09/30 06:31:51;;;;;;;;;;;35.00;71.80;;;;;;5115783;27;20383;-69
2023/09/30 06:34:17;;;;;;;;;;;35.00;71.60;;;;;;5115704;28;19908;-69
2023/09/30 06:36:45;;;;;;;;;;;34.70;71.90;;;;;;5115710;28;20262;-70
2023/09/30 06:39:11;;;;;;;;;;;34.30;72.40;;;;;;5115590;28;19915;-70
2023/09/30 06:41:39;;;;;;;;;;;34.60;72.70;;;;;;5115617;28;20356;-71
2023/09/30 06:44:05;;;;;;;;;;;33.80;72.90;;;;;;5115816;28;19965;-68
2023/09/30 06:46:32;;;;;;;;;;;33.80;73.00;;;;;;5115539;28;19907;-70
2023/09/30 06:48:59;;;;;;;;;;;33.80;73.00;;;;;;5115299;28;19919;-70
2023/09/30 06:51:26;;;;;;;;;;;33.80;73.10;;;;;;5115414;28;19914;-70
2023/09/30 06:53:53;;;;;;;;;;;33.90;72.20;;;;;;5115358;28;19918;-69
2023/09/30 06:56:20;;;;;;;;;;;32.90;74.00;;;;;;5115534;28;19999;-69
2023/09/30 06:58:46;;;;;;;;;;;32.20;75.10;;;;;;5115439;28;19908;-70
2023/09/30 07:01:18;;;;;;;;;;;31.70;76.50;;;;;;5115313;28;19908;-69
2023/09/30 07:03:45;;;;;;;;;;;30.90;77.70;;;;;;5115270;28;19912;-69
2023/09/30 07:06:12;;;;;;;;;;;30.10;79.70;;;;;;5114826;28;20286;-70
2023/09/30 07:08:38;;;;;;;;;;;29.40;81.10;;;;;;5115168;28;19916;-70
2023/09/30 07:11:05;;;;;;;;;;;28.50;83.10;;;;;;5115189;28;20295;-71
2023/09/30 07:13:32;;;;;;;;;;;27.70;84.90;;;;;;5115081;28;20284;-70
2023/09/30 07:15:58;;;;;;;;;;;27.20;86.90;;;;;;5114995;28;20067;-68
2023/09/30 07:18:25;;;;;;;;;;;26.70;88.20;;;;;;5115022;28;19911;-72
2023/09/30 07:20:52;;;;;;;;;;;26.40;89.60;;;;;;5114786;28;20353;-70
2023/09/30 07:23:19;;;;;;;;;;;26.00;90.00;;;;;;5114688;28;20356;-71
2023/09/30 07:25:47;;;;;;;;;;;25.80;90.60;;;;;;5114767;28;19912;-69
2023/09/30 07:28:13;;;;;;;;;;;25.60;91.10;;;;;;5114676;28;19916;-68
2023/09/30 07:30:40;;;;;;;;;;;25.40;91.40;;;;;;5114517;28;20353;-71
2023/09/30 07:33:07;;;;;;;;;;;25.30;91.70;;;;;;5114589;28;19908;-69
2023/09/30 07:35:33;;;;;;;;;;;25.30;92.00;;;;;;5114334;28;20353;-72
2023/09/30 07:38:00;;;;;;;;;;;25.20;92.10;;;;;;5114397;28;20654;-69
2023/09/30 07:40:27;;;;;;;;;;;25.00;92.20;;;;;;5114356;28;19908;-69
2023/09/30 07:42:54;;;;;;;;;;;24.90;92.60;;;;;;5114335;28;19908;-69
2023/09/30 07:45:21;;;;;;;;;;;24.80;92.70;;;;;;5114411;28;19908;-68
2023/09/30 07:47:49;;;;;;;;;;;24.60;92.80;;;;;;5114045;28;19919;-70
2023/09/30 07:50:15;;;;;;;;;;;24.50;93.10;;;;;;5113984;27;19928;-70
2023/09/30 07:52:42;;;;;;;;;;;24.40;93.20;;;;;;5114513;28;19907;-69
2023/09/30 07:55:09;;;;;;;;;;;24.30;93.40;;;;;;5114446;28;19991;-70
2023/09/30 07:57:36;;;;;;;;;;;24.20;93.40;;;;;;5114170;28;19915;-70
2023/09/30 08:00:08;;;;;;;;;;;24.00;93.50;;;;;;5114089;28;19907;-70
2023/09/30 08:02:36;;;;;;;;;;;23.90;93.90;;;;;;5113997;28;19911;-69
2023/09/30 08:05:03;;;;;;;;;;;23.80;94.20;;;;;;5114346;28;19912;-70
2023/09/30 08:07:30;;;;;;;;;;;23.80;94.80;;;;;;5113963;28;19996;-70
2023/09/30 08:09:56;;;;;;;;;;;23.80;95.30;;;;;;5113986;28;19912;-70
2023/09/30 08:12:23;;;;;;;;;;;23.70;95.00;;;;;;5114138;28;19931;-70
2023/09/30 08:14:51;;;;;;;;;;;23.60;95.00;;;;;;5113804;28;20390;-70
2023/09/30 08:17:18;;;;;;;;;;;23.50;95.20;;;;;;5113824;28;20329;-70
2023/09/30 08:19:46;;;;;;;;;;;23.40;95.50;;;;;;5112006;28;19939;-71
2023/09/30 08:22:13;;;;;;;;;;;23.40;95.90;;;;;;5114223;28;19908;-71
2023/09/30 08:24:39;;;;;;;;;;;23.40;95.60;;;;;;5113776;28;19908;-69
2023/09/30 08:27:06;;;;;;;;;;;23.40;95.80;;;;;;5113588;28;20277;-68
2023/09/30 08:29:36;;;;;;;;;;;23.30;95.80;;;;;;5113424;28;20289;-71
2023/09/30 08:32:03;;;;;;;;;;;23.30;96.00;;;;;;5113449;28;19908;-71
2023/09/30 08:34:30;;;;;;;;;;;23.30;95.80;;;;;;5113638;28;19991;-71
2023/09/30 08:36:57;;;;;;;;;;;23.30;95.70;;;;;;5113614;28;20361;-72
2023/09/30 08:39:24;;;;;;;;;;;23.30;95.70;;;;;;5113159;28;20429;-68
2023/09/30 08:41:51;;;;;;;;;;;23.20;96.20;;;;;;5113224;28;19908;-70
2023/09/30 08:44:17;;;;;;;;;;;23.10;95.90;;;;;;5113256;28;19908;-71
2023/09/30 08:46:44;;;;;;;;;;;23.10;96.20;;;;;;5113618;28;19907;-70
2023/09/30 08:49:11;;;;;;;;;;;23.10;96.40;;;;;;5113060;28;19920;-72
2023/09/30 08:51:38;;;;;;;;;;;23.10;96.20;;;;;;5113222;28;19908;-70
2023/09/30 08:54:08;;;;;;;;;;;23.00;96.20;;;;;;5112292;28;20135;-71
2023/09/30 08:56:35;;;;;;;;;;;23.10;96.00;;;;;;5113034;28;20379;-69
2023/09/30 08:59:03;;;;;;;;;;;23.00;95.90;;;;;;5113214;28;19911;-69
2023/09/30 09:01:30;;;;;;;;;;;23.10;95.70;;;;;;5113161;28;19966;-70
2023/09/30 09:03:57;;;;;;;;;;;23.10;95.70;;;;;;5113459;28;19912;-70
2023/09/30 09:06:24;;;;;;;;;;;23.10;95.90;;;;;;5113269;28;20448;-69
2023/09/30 09:08:51;;;;;;;;;;;23.00;94.70;;;;;;5113329;28;19959;-67
2023/09/30 09:11:18;;;;;;;;;;;23.10;94.50;;;;;;5113098;28;19915;-66
2023/09/30 09:13:49;;;;;;;;;;;23.10;94.70;;;;;;5113278;28;19908;-68
2023/09/30 09:16:19;;;;;;;;;;;23.00;93.60;;;;;;5113433;28;19915;-69
2023/09/30 09:18:49;;;;;;;;;;;23.10;93.00;;;;;;5113205;28;19955;-67
2023/09/30 09:21:17;;;;;;;;;;;23.00;92.90;;;;;;5112954;28;19953;-71
2023/09/30 09:23:45;;;;;;;;;;;23.00;92.70;;;;;;5113571;28;19908;-70
2023/09/30 09:26:13;;;;;;;;;;;23.00;92.10;;;;;;5113585;28;19908;-68
2023/09/30 09:28:41;;;;;;;;;;;23.00;92.10;;;;;;5113363;28;20368;-70
2023/09/30 09:31:24;;;;;;;;;;;23.00;92.00;;;;;;5116384;28;20272;-68
2023/09/30 09:33:54;;;;;;;;;;;22.90;91.90;;;;;;5117227;28;19907;-71
2023/09/30 09:36:21;;;;;;;;;;;22.90;91.70;;;;;;5116783;28;19908;-69
2023/09/30 09:38:53;;;;;;;;;;;22.90;91.70;;;;;;5117040;28;20337;-70
2023/09/30 09:41:20;;;;;;;;;;;22.90;91.90;;;;;;5116838;28;19915;-70
2023/09/30 09:43:53;;;;;;;;;;;22.90;91.90;;;;;;5116933;28;19914;-70
2023/09/30 09:46:20;;;;;;;;;;;22.90;91.90;;;;;;5116700;28;19908;-71
2023/09/30 09:48:49;;;;;;;;;;;22.90;91.80;;;;;;5116672;28;19927;-66
2023/09/30 09:51:16;;;;;;;;;;;22.90;92.00;;;;;;5116750;28;19912;-69
2023/09/30 09:53:43;;;;;;;;;;;22.90;92.20;;;;;;5116595;28;19908;-70
2023/09/30 09:56:11;;;;;;;;;;;22.90;92.30;;;;;;5116774;28;19942;-69
2023/09/30 09:58:40;;;;;;;;;;;22.90;92.40;;;;;;5116520;28;19907;-70
2023/09/30 10:01:09;;;;;;;;;;;22.90;92.60;;;;;;5116268;28;19907;-68
2023/09/30 10:03:37;;;;;;;;;;;22.90;92.70;;;;;;5116394;28;19919;-70
2023/09/30 10:06:04;;;;;;;;;;;22.90;92.80;;;;;;5116085;28;19973;-71
2023/09/30 10:08:36;;;;;;;;;;;22.90;93.20;;;;;;5116041;28;19916;-70
2023/09/30 10:11:02;;;;;;;;;;;22.90;93.20;;;;;;5114866;28;19908;-71
2023/09/30 10:13:47;;;;;;;;;;;22.90;93.10;;;;;;5116132;28;19915;-68
2023/09/30 10:16:37;;;;;;;;;;;22.90;93.40;;;;;;5116162;28;19914;-71
2023/09/30 10:19:09;;;;;;;;;;;22.80;93.50;;;;;;5112986;28;19908;-71
2023/09/30 10:21:36;;;;;;;;;;;22.80;93.70;;;;;;5116275;27;20272;-71
2023/09/30 10:24:21;;;;;;;;;;;22.80;94.10;;;;;;5116195;28;19938;-69
2023/09/30 10:27:07;;;;;;;;;;;22.70;94.50;;;;;;5116067;28;19961;-67
2023/09/30 10:29:43;;;;;;;;;;;22.70;94.60;;;;;;5115708;28;19916;-69
2023/09/30 10:32:10;;;;;;;;;;;22.60;95.00;;;;;;5116052;28;19908;-67
2023/09/30 10:34:37;;;;;;;;;;;22.60;95.40;;;;;;5115871;28;19937;-70
2023/09/30 10:37:32;;;;;;;;;;;22.50;95.70;;;;;;5115838;28;19911;-70
2023/09/30 10:39:59;;;;;;;;;;;22.50;95.80;;;;;;5110645;28;19968;-69
2023/09/30 10:42:44;;;;;;;;;;;22.40;96.00;;;;;;5115184;28;20407;-68
2023/09/30 10:45:29;;;;;;;;;;;22.30;96.30;;;;;;5115850;28;19914;-71
2023/09/30 10:47:56;;;;;;;;;;;22.30;96.70;;;;;;5115606;28;19963;-68
2023/09/30 10:50:46;;;;;;;;;;;22.20;96.80;;;;;;5115417;28;20350;-70
2023/09/30 10:53:13;;;;;;;;;;;22.20;97.00;;;;;;5112252;28;19908;-70
2023/09/30 10:55:42;;;;;;;;;;;22.00;97.70;;;;;;5115457;28;19991;-70
2023/09/30 10:58:09;;;;;;;;;;;22.00;98.40;;;;;;5115348;28;19914;-69
2023/09/30 11:00:38;;;;;;;;;;;21.90;98.70;;;;;;5115279;28;19912;-71
2023/09/30 11:03:05;;;;;;;;;;;21.80;98.70;;;;;;5115219;28;19907;-70
2023/09/30 11:05:34;;;;;;;;;;;21.70;99.20;;;;;;5115358;28;19999;-68
2023/09/30 11:08:03;;;;;;;;;;;21.60;99.60;;;;;;5115017;28;19916;-68
2023/09/30 11:10:31;;;;;;;;;;;21.50;99.80;;;;;;5114964;28;20417;-69
2023/09/30 11:12:58;;;;;;;;;;;21.50;99.90;;;;;;5115066;28;19907;-72
2023/09/30 11:15:27;;;;;;;;;;;21.50;99.90;;;;;;5114997;28;19965;-71
2023/09/30 11:17:54;;;;;;;;;;;21.40;99.90;;;;;;5115098;28;19968;-68
2023/09/30 11:20:21;;;;;;;;;;;21.40;99.90;;;;;;5114849;28;20261;-67
2023/09/30 11:22:48;;;;;;;;;;;21.30;99.90;;;;;;5115015;28;19911;-70
2023/09/30 11:25:19;;;;;;;;;;;21.20;99.90;;;;;;5115013;28;19912;-70
2023/09/30 11:27:46;;;;;;;;;;;21.20;99.90;;;;;;5114699;28;20072;-70
2023/09/30 11:30:13;;;;;;;;;;;21.20;99.90;;;;;;5114524;28;20052;-69
2023/09/30 11:32:40;;;;;;;;;;;21.20;99.90;;;;;;5114785;28;19961;-69
2023/09/30 11:35:11;;;;;;;;;;;21.20;99.90;;;;;;5113433;28;20265;-70
2023/09/30 11:37:37;;;;;;;;;;;21.10;99.90;;;;;;5114540;28;19908;-70
2023/09/30 11:40:11;;;;;;;;;;;21.10;99.30;;;;;;5114590;28;19908;-67
2023/09/30 11:42:38;;;;;;;;;;;21.20;99.20;;;;;;5114689;28;20012;-66
2023/09/30 11:45:18;;;;;;;;;;;21.20;99.10;;;;;;5114437;28;19916;-67
2023/09/30 11:47:45;;;;;;;;;;;21.30;98.90;;;;;;5112764;28;19916;-70
2023/09/30 11:50:12;;;;;;;;;;;21.40;98.70;;;;;;5114234;28;19920;-70
2023/09/30 11:52:41;;;;;;;;;;;21.30;98.90;;;;;;5113948;28;19999;-68
2023/09/30 11:55:08;;;;;;;;;;;21.30;99.00;;;;;;5113901;28;19908;-68
2023/09/30 11:57:34;;;;;;;;;;;21.30;99.10;;;;;;5114549;28;19908;-68
2023/09/30 12:00:01;;;;;;;;;;;21.40;99.00;;;;;;5114122;28;20279;-66
2023/09/30 12:02:28;;;;;;;;;;;21.40;99.10;;;;;;5114291;28;19999;-70
2023/09/30 12:04:55;;;;;;;;;;;21.40;99.40;;;;;;5114201;28;19998;-68
2023/09/30 12:07:22;;;;;;;;;;;21.50;99.40;;;;;;5114106;28;19953;-67
2023/09/30 12:09:48;;;;;;;;;;;21.40;99.50;;;;;;5114003;28;19916;-69
2023/09/30 12:12:16;;;;;;;;;;;21.30;99.80;;;;;;5114500;28;19912;-71
2023/09/30 12:14:42;;;;;;;;;;;21.30;99.90;;;;;;5113963;28;19915;-71
2023/09/30 12:17:10;;;;;;;;;;;21.30;99.90;;;;;;5113948;28;19908;-69
2023/09/30 12:19:37;;;;;;;;;;;21.20;99.90;;;;;;5113810;28;19912;-71
2023/09/30 12:22:04;;;;;;;;;;;21.20;99.90;;;;;;5113961;28;20272;-69
2023/09/30 12:24:31;;;;;;;;;;;21.00;99.90;;;;;;5113790;28;19908;-68
2023/09/30 12:26:58;;;;;;;;;;;21.00;99.90;;;;;;5113785;28;20284;-71
2023/09/30 12:29:24;;;;;;;;;;;21.00;99.90;;;;;;5113707;28;20352;-72
2023/09/30 12:31:52;;;;;;;;;;;20.90;99.90;;;;;;5113669;28;19998;-68
2023/09/30 12:34:18;;;;;;;;;;;20.80;99.90;;;;;;5113666;28;20030;-70
2023/09/30 12:36:47;;;;;;;;;;;20.70;99.90;;;;;;5113558;28;19918;-70
2023/09/30 12:39:16;;;;;;;;;;;20.70;99.90;;;;;;5113318;28;20009;-72
2023/09/30 12:41:43;;;;;;;;;;;20.60;99.90;;;;;;5113591;28;20331;-69
2023/09/30 12:44:10;;;;;;;;;;;20.60;99.90;;;;;;5113541;28;20002;-68
2023/09/30 12:46:39;;;;;;;;;;;20.60;99.90;;;;;;5113593;28;19914;-71
2023/09/30 12:49:08;;;;;;;;;;;20.50;99.90;;;;;;5113257;28;20039;-72
2023/09/30 12:51:36;;;;;;;;;;;20.50;99.90;;;;;;5113169;28;20388;-67
2023/09/30 12:54:03;;;;;;;;;;;20.40;99.90;;;;;;5113363;28;19915;-68
2023/09/30 12:56:30;;;;;;;;;;;20.40;99.90;;;;;;5113483;28;20253;-69
2023/09/30 12:58:57;;;;;;;;;;;20.40;99.90;;;;;;5113348;28;19999;-70
2023/09/30 13:01:24;;;;;;;;;;;20.40;99.90;;;;;;5113204;28;19908;-73
2023/09/30 13:03:51;;;;;;;;;;;20.30;99.90;;;;;;5113693;28;20306;-69
2023/09/30 13:06:19;;;;;;;;;;;20.30;99.90;;;;;;5117107;28;19908;-66
2023/09/30 13:08:45;;;;;;;;;;;20.20;99.90;;;;;;5117307;28;19920;-68
2023/09/30 13:11:13;;;;;;;;;;;20.20;99.90;;;;;;5117520;28;19931;-69
2023/09/30 13:13:40;;;;;;;;;;;20.10;99.90;;;;;;5117303;28;19930;-67
2023/09/30 13:16:11;;;;;;;;;;;20.10;99.90;;;;;;5117286;28;20356;-69
2023/09/30 13:18:38;;;;;;;;;;;20.10;99.90;;;;;;5117302;28;19984;-72
2023/09/30 13:21:07;;;;;;;;;;;20.10;99.90;;;;;;5117406;28;20001;-69
2023/09/30 13:23:34;;;;;;;;;;;20.10;99.90;;;;;;5117436;28;20368;-68
2023/09/30 13:26:01;;;;;;;;;;;20.00;99.90;;;;;;5117218;28;19915;-70
2023/09/30 13:28:28;;;;;;;;;;;20.00;99.90;;;;;;5117160;28;19923;-72
2023/09/30 13:30:54;;;;;;;;;;;20.00;99.90;;;;;;5117155;28;19951;-69
2023/09/30 13:33:21;;;;;;;;;;;20.00;99.90;;;;;;5116954;28;20287;-67
2023/09/30 13:35:48;;;;;;;;;;;20.10;99.90;;;;;;5116886;28;19951;-67
2023/09/30 13:38:16;;;;;;;;;;;20.00;99.90;;;;;;5116945;28;20335;-66
2023/09/30 13:40:42;;;;;;;;;;;20.00;99.90;;;;;;5116827;28;19915;-72
2023/09/30 13:43:09;;;;;;;;;;;20.00;99.90;;;;;;5116900;28;19950;-68
2023/09/30 13:45:36;;;;;;;;;;;20.00;99.90;;;;;;5116971;28;19963;-69
2023/09/30 13:48:04;;;;;;;;;;;20.00;99.90;;;;;;5116734;28;19919;-71
2023/09/30 13:50:31;;;;;;;;;;;20.00;99.90;;;;;;5116570;28;19956;-68
2023/09/30 13:53:00;;;;;;;;;;;19.90;99.90;;;;;;5116738;28;20380;-72
2023/09/30 13:55:27;;;;;;;;;;;19.90;99.90;;;;;;5116645;28;20321;-73
2023/09/30 13:57:53;;;;;;;;;;;19.90;99.90;;;;;;5116645;28;19908;-67
2023/09/30 14:00:21;;;;;;;;;;;19.80;99.90;;;;;;5115376;28;19908;-71
2023/09/30 14:02:48;;;;;;;;;;;19.80;99.90;;;;;;5116373;28;19907;-71
2023/09/30 14:05:14;;;;;;;;;;;19.80;99.90;;;;;;5116532;28;19915;-69
2023/09/30 14:07:41;;;;;;;;;;;19.70;99.90;;;;;;5116457;28;19904;-69
2023/09/30 14:10:10;;;;;;;;;;;19.60;99.90;;;;;;5115253;28;19908;-66
2023/09/30 14:12:37;;;;;;;;;;;19.60;99.90;;;;;;5116548;27;19908;-68
2023/09/30 14:15:05;;;;;;;;;;;19.60;99.90;;;;;;5116027;28;19915;-69
2023/09/30 14:17:32;;;;;;;;;;;19.60;99.90;;;;;;5115026;28;19908;-69
2023/09/30 14:19:58;;;;;;;;;;;19.50;99.90;;;;;;5116192;28;19922;-68
2023/09/30 14:22:26;;;;;;;;;;;19.40;99.90;;;;;;5116196;28;19908;-71